createdAt,value
2019-04-22T00:00:40.457Z,1015.41
2019-04-22T00:01:34.970Z,1015.42
2019-04-22T00:02:29.963Z,1015.46
2019-04-22T00:03:52.305Z,1015.41
2019-04-22T01:28:10.742Z,1014.75
2019-04-22T01:30:53.251Z,1014.76
2019-04-22T01:31:39.966Z,1014.8
2019-04-22T01:32:43.794Z,1014.76
2019-04-22T01:33:48.134Z,1014.74
2019-04-22T06:07:31.140Z,1012.97
2019-04-22T10:46:15.898Z,1009.60
2019-04-22T10:47:15.952Z,1009.59
2019-04-22T10:48:16.448Z,1009.61
2019-04-22T10:49:16.131Z,1009.66
2019-04-22T10:50:16.497Z,1009.55
2019-04-22T10:51:16.937Z,1009.56
2019-04-22T10:52:02.703Z,1009.53
2019-04-22T10:53:01.602Z,1009.50
2019-04-22T10:54:01.700Z,1009.46
2019-04-22T10:55:01.551Z,1009.46
2019-04-22T10:56:01.281Z,1009.43
2019-04-22T10:57:01.263Z,1009.45
2019-04-22T10:58:23.043Z,1009.41
2019-04-22T10:59:22.867Z,1009.41
2019-04-22T11:00:23.719Z,1009.40
2019-04-22T11:01:23.278Z,1009.34
2019-04-22T11:02:23.433Z,1009.28
2019-04-22T11:03:24.264Z,1009.34
2019-04-22T11:04:22.771Z,1009.31
2019-04-22T11:05:23.952Z,1009.29
2019-04-22T11:06:23.332Z,1009.28
2019-04-22T11:07:31.074Z,1009.25
2019-04-22T11:08:31.945Z,1009.25
2019-04-22T11:09:23.927Z,1009.26
2019-04-22T11:10:35.299Z,1009.29
2019-04-22T11:11:34.767Z,1009.28
2019-04-22T11:12:25.156Z,1009.30
2019-04-22T11:13:24.298Z,1009.21
2019-04-22T11:14:23.259Z,1009.21
2019-04-22T11:15:22.850Z,1009.21
2019-04-22T11:16:23.420Z,1009.22
2019-04-22T11:17:23.964Z,1009.22
2019-04-22T11:18:23.239Z,1009.22
2019-04-22T11:19:23.566Z,1009.21
2019-04-22T11:20:23.780Z,1009.18
2019-04-22T11:21:23.338Z,1009.20
2019-04-22T11:22:27.702Z,1009.19
2019-04-22T11:23:22.924Z,1009.16
2019-04-22T11:24:23.091Z,1009.17
2019-04-22T11:25:23.586Z,1009.20
2019-04-22T11:26:23.767Z,1009.18
2019-04-22T11:27:23.265Z,1009.14
2019-04-22T11:28:23.370Z,1009.14
2019-04-22T11:29:23.745Z,1009.13
2019-04-22T11:30:24.292Z,1009.07
2019-04-22T11:31:24.088Z,1009.07
2019-04-22T11:32:22.729Z,1009.01
2019-04-22T11:33:48.420Z,1008.99
2019-04-22T11:34:49.053Z,1008.95
2019-04-22T11:35:48.188Z,1008.98
2019-04-22T11:36:48.109Z,1008.93
2019-04-22T11:37:48.630Z,1008.91
2019-04-22T11:38:52.321Z,1008.90
2019-04-22T11:40:00.283Z,1008.88
2019-04-22T11:40:52.491Z,1008.89
2019-04-22T11:41:48.194Z,1008.87
2019-04-22T11:42:48.334Z,1008.87
2019-04-22T11:43:49.450Z,1008.82
2019-04-22T11:44:48.255Z,1008.92
2019-04-22T11:45:49.231Z,1008.85
2019-04-22T11:46:49.552Z,1008.80
2019-04-22T11:47:48.271Z,1008.85
2019-04-22T11:48:48.111Z,1008.82
2019-04-22T11:49:48.120Z,1008.80
2019-04-22T11:50:48.215Z,1008.79
2019-04-22T11:51:48.081Z,1008.76
2019-04-22T11:52:48.847Z,1008.74
2019-04-22T11:53:49.141Z,1008.74
2019-04-22T11:54:48.582Z,1008.79
2019-04-22T11:55:49.014Z,1008.70
2019-04-22T11:56:49.314Z,1008.67
2019-04-22T11:57:48.164Z,1008.63
2019-04-22T11:58:48.927Z,1008.68
2019-04-22T11:59:49.033Z,1008.63
2019-04-22T12:00:49.380Z,1008.66
2019-04-22T12:01:48.767Z,1008.67
2019-04-22T12:02:49.336Z,1008.60
2019-04-22T12:03:49.616Z,1008.62
2019-04-22T12:04:49.652Z,1008.62
2019-04-22T12:05:48.218Z,1008.64
2019-04-22T12:06:49.632Z,1008.60
2019-04-22T12:07:48.984Z,1008.61
2019-04-22T12:08:48.065Z,1008.58
2019-04-22T12:09:48.063Z,1008.57
2019-04-22T12:10:53.159Z,1008.51
2019-04-22T12:11:49.408Z,1008.52
2019-04-22T12:12:49.588Z,1008.51
2019-04-22T12:13:48.341Z,1008.44
2019-04-22T12:14:48.087Z,1008.45
2019-04-22T12:15:49.102Z,1008.40
2019-04-22T12:16:49.634Z,1008.40
2019-04-22T12:17:48.923Z,1008.40
2019-04-22T12:18:49.287Z,1008.43
2019-04-22T12:19:48.276Z,1008.39
2019-04-22T12:20:57.145Z,1008.34
2019-04-22T12:21:57.246Z,1008.29
2019-04-22T12:22:57.222Z,1008.36
2019-04-22T12:23:58.790Z,1008.30
2019-04-22T12:24:58.594Z,1008.28
2019-04-22T12:26:03.557Z,1008.27
2019-04-22T12:26:58.042Z,1008.25
2019-04-22T12:27:57.077Z,1008.25
2019-04-22T12:28:57.392Z,1008.22
2019-04-22T12:29:57.002Z,1008.23
2019-04-22T12:30:57.365Z,1008.18
2019-04-22T12:31:57.751Z,1008.15
2019-04-22T12:32:58.119Z,1008.19
2019-04-22T12:33:57.372Z,1008.09
2019-04-22T12:34:57.477Z,1008.05
2019-04-22T12:35:57.021Z,1008.02
2019-04-22T12:36:58.415Z,1008.09
2019-04-22T12:37:59.756Z,1008.04
2019-04-22T12:38:57.841Z,1007.99
2019-04-22T12:39:58.286Z,1007.99
2019-04-22T12:41:00.444Z,1008.03
2019-04-22T12:41:58.337Z,1007.98
2019-04-22T12:42:57.665Z,1007.96
2019-04-22T12:43:57.184Z,1007.96
2019-04-22T12:44:58.380Z,1007.97
2019-04-22T12:45:58.264Z,1007.86
2019-04-22T12:46:56.924Z,1007.89
2019-04-22T12:47:57.913Z,1007.87
2019-04-22T12:48:58.243Z,1007.91
2019-04-22T12:50:08.905Z,1007.88
2019-04-22T12:50:58.484Z,1007.85
2019-04-22T12:51:57.161Z,1007.80
2019-04-22T12:53:01.315Z,1007.76
2019-04-22T12:53:57.255Z,1007.72
2019-04-22T12:54:57.373Z,1007.70
2019-04-22T12:55:57.884Z,1007.69
2019-04-22T12:56:57.758Z,1007.70
2019-04-22T12:58:00.718Z,1007.71
2019-04-22T12:58:57.096Z,1007.66
2019-04-22T12:59:57.520Z,1007.64
2019-04-22T13:00:57.246Z,1007.62
2019-04-22T13:01:58.550Z,1007.60
2019-04-22T13:02:57.154Z,1007.61
2019-04-22T13:04:03.244Z,1007.63
2019-04-22T13:04:58.188Z,1007.61
2019-04-22T13:05:57.358Z,1007.59
2019-04-22T13:06:57.703Z,1007.62
2019-04-22T13:07:57.834Z,1007.55
2019-04-22T13:08:57.015Z,1007.52
2019-04-22T13:09:57.163Z,1007.55
2019-04-22T13:11:00.906Z,1007.56
2019-04-22T13:11:57.198Z,1007.49
2019-04-22T13:12:58.559Z,1007.48
2019-04-22T13:13:57.106Z,1007.45
2019-04-22T13:14:57.261Z,1007.44
2019-04-22T13:15:57.194Z,1007.40
2019-04-22T13:16:57.778Z,1007.42
2019-04-22T13:18:05.727Z,1007.39
2019-04-22T13:19:02.015Z,1007.38
2019-04-22T13:19:30.208Z,1007.37
2019-04-22T13:20:30.456Z,1007.40
2019-04-22T13:21:30.925Z,1007.38
2019-04-22T13:22:30.591Z,1007.31
2019-04-22T13:23:29.891Z,1007.29
2019-04-22T13:24:30.181Z,1007.30
2019-04-22T13:25:32.177Z,1007.25
2019-04-22T13:26:29.933Z,1007.27
2019-04-22T13:27:30.894Z,1007.21
2019-04-22T13:28:31.359Z,1007.21
2019-04-22T13:29:31.122Z,1007.18
2019-04-22T13:30:30.505Z,1007.21
2019-04-22T13:31:30.858Z,1007.21
2019-04-22T13:32:31.222Z,1007.11
2019-04-22T13:33:30.597Z,1007.07
2019-04-22T13:34:34.734Z,1007.12
2019-04-22T13:35:29.833Z,1007.07
2019-04-22T13:36:31.492Z,1007.06
2019-04-22T13:37:30.805Z,1007.02
2019-04-22T13:38:31.155Z,1007.06
2019-04-22T13:39:31.281Z,1007.03
2019-04-22T13:40:30.778Z,1007.01
2019-04-22T13:41:35.398Z,1006.99
2019-04-22T13:42:31.216Z,1006.97
2019-04-22T13:43:31.116Z,1007.01
2019-04-22T13:44:31.332Z,1006.95
2019-04-22T13:45:29.844Z,1006.98
2019-04-22T13:46:31.714Z,1006.98
2019-04-22T13:47:46.493Z,1006.92
2019-04-22T13:48:46.925Z,1006.89
2019-04-22T13:52:02.314Z,1006.86
2019-04-22T13:53:03.696Z,1006.84
2019-04-22T13:54:35.167Z,1006.81
2019-04-22T13:55:09.697Z,1006.80
2019-04-22T13:55:48.477Z,1006.79
2019-04-22T13:56:48.002Z,1006.77
2019-04-22T13:57:47.149Z,1006.78
2019-04-22T13:58:46.121Z,1006.76
2019-04-22T13:59:38.188Z,1006.86
2019-04-22T14:00:30.859Z,1006.74
2019-04-22T14:01:30.368Z,1006.76
2019-04-22T14:02:30.624Z,1006.73
2019-04-22T14:03:30.832Z,1006.74
2019-04-22T14:04:30.454Z,1006.71
2019-04-22T14:05:31.002Z,1006.72
2019-04-22T14:06:31.106Z,1006.69
2019-04-22T14:07:30.740Z,1006.66
2019-04-22T14:08:31.218Z,1006.75
2019-04-22T14:09:30.565Z,1006.69
2019-04-22T14:10:30.252Z,1006.57
2019-04-22T14:11:37.656Z,1006.59
2019-04-22T14:12:30.815Z,1006.62
2019-04-22T14:13:30.049Z,1006.58
2019-04-22T14:14:30.202Z,1006.60
2019-04-22T14:15:29.889Z,1006.65
2019-04-22T14:16:31.020Z,1006.63
2019-04-22T14:17:31.381Z,1006.53
2019-04-22T14:18:30.740Z,1006.52
2019-04-22T14:19:29.947Z,1006.54
2019-04-22T14:20:32.346Z,1006.52
2019-04-22T14:21:30.567Z,1006.50
2019-04-22T14:22:30.540Z,1006.49
2019-04-22T14:23:30.890Z,1006.39
2019-04-22T14:24:30.098Z,1006.42
2019-04-22T14:25:30.489Z,1006.41
2019-04-22T14:26:44.061Z,1006.39
2019-04-22T14:27:39.718Z,1006.39
2019-04-22T14:28:30.897Z,1006.39
2019-04-22T14:29:29.595Z,1006.40
2019-04-22T14:30:30.533Z,1006.34
2019-04-22T14:31:30.761Z,1006.34
2019-04-22T14:32:31.618Z,1006.35
2019-04-22T14:33:30.077Z,1006.33
2019-04-22T14:34:30.244Z,1006.33
2019-04-22T14:35:31.189Z,1006.33
2019-04-22T14:36:29.821Z,1006.37
2019-04-22T14:37:29.944Z,1006.33
2019-04-22T14:38:30.284Z,1006.32
2019-04-22T14:39:30.422Z,1006.30
2019-04-22T14:40:30.476Z,1006.32
2019-04-22T14:41:40.706Z,1006.29
2019-04-22T14:42:51.793Z,1006.26
2019-04-22T14:44:00.765Z,1006.30
2019-04-22T14:46:04.663Z,1006.23
2019-04-22T14:46:50.150Z,1006.22
2019-04-22T14:47:58.184Z,1006.22
2019-04-22T14:48:49.748Z,1006.23
2019-04-22T14:49:53.896Z,1006.19
2019-04-22T14:50:53.131Z,1006.18
2019-04-22T14:51:49.616Z,1006.16
2019-04-22T14:52:50.813Z,1006.17
2019-04-22T14:53:44.747Z,1006.12
2019-04-22T14:54:44.642Z,1006.10
2019-04-22T14:55:32.818Z,1006.09
2019-04-22T14:56:30.539Z,1006.09
2019-04-22T14:57:31.473Z,1006.13
2019-04-22T14:58:31.053Z,1006.12
2019-04-22T14:59:30.954Z,1006.08
2019-04-22T15:00:29.829Z,1006.10
2019-04-22T15:01:30.771Z,1006.04
2019-04-22T15:02:29.845Z,1006.01
2019-04-22T15:03:29.654Z,1006.01
2019-04-22T15:04:31.007Z,1005.96
2019-04-22T15:05:30.292Z,1005.98
2019-04-22T15:06:31.534Z,1005.98
2019-04-22T15:07:30.796Z,1006.00
2019-04-22T15:08:30.982Z,1005.98
2019-04-22T15:09:30.103Z,1006.05
2019-04-22T15:10:29.885Z,1005.96
2019-04-22T15:11:42.765Z,1005.96
2019-04-22T15:12:34.538Z,1005.97
2019-04-22T15:13:31.471Z,1005.96
2019-04-22T15:14:29.969Z,1005.92
2019-04-22T15:15:31.186Z,1005.90
2019-04-22T15:16:29.960Z,1005.87
2019-04-22T15:17:31.356Z,1005.91
2019-04-22T15:18:29.852Z,1005.92
2019-04-22T15:19:29.788Z,1005.90
2019-04-22T15:20:29.966Z,1005.89
2019-04-22T15:21:29.668Z,1005.86
2019-04-22T15:22:30.804Z,1005.83
2019-04-22T15:23:31.006Z,1005.80
2019-04-22T15:24:29.679Z,1005.81
2019-04-22T15:25:30.582Z,1005.79
2019-04-22T15:26:30.714Z,1005.82
2019-04-22T15:27:31.016Z,1005.77
2019-04-22T15:28:31.303Z,1005.79
2019-04-22T15:29:29.794Z,1005.79
2019-04-22T15:30:29.778Z,1005.73
2019-04-22T15:31:31.228Z,1005.78
2019-04-22T15:32:29.767Z,1005.74
2019-04-22T15:33:29.736Z,1005.76
2019-04-22T15:34:30.628Z,1005.76
2019-04-22T15:35:31.392Z,1005.69
2019-04-22T15:36:30.494Z,1005.71
2019-04-22T15:37:31.090Z,1005.66
2019-04-22T15:38:30.196Z,1005.70
2019-04-22T15:39:31.286Z,1005.69
2019-04-22T15:40:30.696Z,1005.64
2019-04-22T15:41:30.557Z,1005.66
2019-04-22T15:42:35.567Z,1005.63
2019-04-22T15:43:31.293Z,1005.61
2019-04-22T15:44:30.383Z,1005.62
2019-04-22T15:45:30.647Z,1005.62
2019-04-22T15:46:29.897Z,1005.60
2019-04-22T15:47:30.990Z,1005.55
2019-04-22T15:48:32.218Z,1005.55
2019-04-22T15:49:29.878Z,1005.54
2019-04-22T15:50:30.899Z,1005.56
2019-04-22T15:51:30.830Z,1005.50
2019-04-22T15:52:36.575Z,1005.49
2019-04-22T15:53:29.868Z,1005.48
2019-04-22T15:54:29.924Z,1005.48
2019-04-22T15:55:29.822Z,1005.49
2019-04-22T15:56:30.643Z,1005.49
2019-04-22T15:57:30.795Z,1005.47
2019-04-22T15:58:30.224Z,1005.46
2019-04-22T15:59:47.718Z,1005.39
2019-04-22T16:00:41.532Z,1005.36
2019-04-22T16:01:33.999Z,1005.46
2019-04-22T16:02:29.888Z,1005.43
2019-04-22T16:03:29.707Z,1005.37
2019-04-22T16:04:30.854Z,1005.39
2019-04-22T16:05:30.315Z,1005.43
2019-04-22T16:06:30.184Z,1005.44
2019-04-22T16:07:29.828Z,1005.38
2019-04-22T16:08:32.430Z,1005.32
2019-04-22T16:09:31.101Z,1005.36
2019-04-22T16:10:30.414Z,1005.34
2019-04-22T16:11:29.812Z,1005.30
2019-04-22T16:12:35.906Z,1005.31
2019-04-22T16:13:34.015Z,1005.31
2019-04-22T16:14:35.088Z,1005.22
2019-04-22T16:15:30.727Z,1005.24
2019-04-22T16:16:30.517Z,1005.22
2019-04-22T16:17:30.650Z,1005.25
2019-04-22T16:18:30.711Z,1005.22
2019-04-22T16:19:30.790Z,1005.17
2019-04-22T16:20:30.083Z,1005.16
2019-04-22T16:21:37.759Z,1005.20
2019-04-22T16:22:30.652Z,1005.22
2019-04-22T16:23:29.868Z,1005.30
2019-04-22T16:24:29.876Z,1005.18
2019-04-22T16:25:31.245Z,1005.14
2019-04-22T16:26:30.569Z,1005.13
2019-04-22T16:27:30.188Z,1005.11
2019-04-22T16:28:31.187Z,1005.06
2019-04-22T16:29:29.801Z,1005.07
2019-04-22T16:30:30.927Z,1005.08
2019-04-22T16:31:29.553Z,1005.04
2019-04-22T16:32:29.906Z,1005.04
2019-04-22T16:33:31.059Z,1005.05
2019-04-22T16:34:29.611Z,1005.03
2019-04-22T16:35:30.798Z,1005.10
2019-04-22T16:36:30.960Z,1005.05
2019-04-22T16:37:30.568Z,1005.07
2019-04-22T16:38:30.905Z,1005.04
2019-04-22T16:39:30.961Z,1005.03
2019-04-22T16:40:30.542Z,1005.04
2019-04-22T16:41:30.658Z,1005.04
2019-04-22T16:42:36.895Z,1005.00
2019-04-22T16:43:30.843Z,1005.03
2019-04-22T16:44:30.289Z,1005.00
2019-04-22T16:45:29.780Z,1005.03
2019-04-22T16:46:29.836Z,1005.02
2019-04-22T16:47:31.172Z,1005.03
2019-04-22T16:48:29.860Z,1005.01
2019-04-22T16:49:29.850Z,1004.98
2019-04-22T16:50:29.756Z,1004.98
2019-04-22T16:51:29.842Z,1005.00
2019-04-22T16:52:30.249Z,1005.01
2019-04-22T16:53:29.590Z,1004.94
2019-04-22T16:54:30.731Z,1004.91
2019-04-22T16:55:30.690Z,1004.93
2019-04-22T16:56:33.116Z,1004.88
2019-04-22T16:57:30.075Z,1004.87
2019-04-22T16:58:30.519Z,1004.86
2019-04-22T16:59:30.748Z,1004.84
2019-04-22T17:00:30.882Z,1004.82
2019-04-22T17:01:30.504Z,1004.80
2019-04-22T17:02:30.732Z,1004.87
2019-04-22T17:03:30.801Z,1004.81
2019-04-22T17:04:30.479Z,1004.80
2019-04-22T17:05:29.679Z,1004.83
2019-04-22T17:06:29.981Z,1004.81
2019-04-22T17:07:30.029Z,1004.84
2019-04-22T17:08:30.642Z,1004.80
2019-04-22T17:09:29.903Z,1004.82
2019-04-22T17:10:29.527Z,1004.80
2019-04-22T17:11:29.900Z,1004.81
2019-04-22T17:12:43.274Z,1004.84
2019-04-22T17:13:32.767Z,1004.86
2019-04-22T17:14:35.042Z,1004.81
2019-04-22T17:15:31.213Z,1004.86
2019-04-22T17:16:30.611Z,1004.82
2019-04-22T17:17:30.806Z,1004.85
2019-04-22T17:18:30.999Z,1004.79
2019-04-22T17:19:31.084Z,1004.80
2019-04-22T17:20:29.674Z,1004.80
2019-04-22T17:21:29.940Z,1004.78
2019-04-22T17:22:29.703Z,1004.78
2019-04-22T17:23:29.787Z,1004.77
2019-04-22T17:24:30.033Z,1004.77
2019-04-22T17:25:30.179Z,1004.76
2019-04-22T17:26:30.409Z,1004.74
2019-04-22T17:27:32.414Z,1004.79
2019-04-22T17:28:31.194Z,1004.80
2019-04-22T17:29:30.436Z,1004.77
2019-04-22T17:30:30.912Z,1004.78
2019-04-22T17:31:30.948Z,1004.81
2019-04-22T17:32:29.588Z,1004.77
2019-04-22T17:33:30.744Z,1004.75
2019-04-22T17:34:29.727Z,1004.77
2019-04-22T17:35:30.097Z,1004.76
2019-04-22T17:36:29.847Z,1004.81
2019-04-22T17:37:33.365Z,1004.78
2019-04-22T17:38:40.863Z,1004.81
2019-04-22T17:39:41.182Z,1004.74
2019-04-22T17:40:42.208Z,1004.74
2019-04-22T17:41:50.665Z,1004.81
2019-04-22T17:43:53.815Z,1004.82
2019-04-22T17:45:01.077Z,1004.78
2019-04-22T17:45:54.097Z,1004.80
2019-04-22T17:46:44.625Z,1004.80
2019-04-22T17:47:45.196Z,1004.76
2019-04-22T17:48:51.772Z,1004.80
2019-04-22T17:49:54.100Z,1004.79
2019-04-22T17:50:57.773Z,1004.79
2019-04-22T17:51:53.496Z,1004.79
2019-04-22T17:52:42.065Z,1004.80
2019-04-22T17:53:53.457Z,1004.83
2019-04-22T17:54:44.724Z,1004.84
2019-04-22T17:55:49.441Z,1004.80
2019-04-22T17:56:43.643Z,1004.84
2019-04-22T17:57:41.021Z,1004.82
2019-04-22T17:59:42.083Z,1004.81
2019-04-22T18:00:43.440Z,1004.84
2019-04-22T18:01:49.314Z,1004.81
2019-04-22T18:02:43.459Z,1004.85
2019-04-22T18:03:37.497Z,1004.83
2019-04-22T18:04:40.347Z,1004.79
2019-04-22T18:05:40.935Z,1004.83
2019-04-22T18:06:54.850Z,1004.82
2019-04-22T18:07:49.074Z,1004.86
2019-04-22T18:08:50.656Z,1004.85
2019-04-22T18:10:16.146Z,1004.83
2019-04-22T18:10:47.674Z,1004.83
2019-04-22T18:11:51.240Z,1004.76
2019-04-22T18:12:53.436Z,1004.80
2019-04-22T18:13:51.617Z,1004.81
2019-04-22T18:14:52.887Z,1004.80
2019-04-22T18:16:01.035Z,1004.81
2019-04-22T18:16:52.094Z,1004.76
2019-04-22T18:17:54.179Z,1004.78
2019-04-22T18:18:52.838Z,1004.78
2019-04-22T18:19:46.234Z,1004.78
2019-04-22T18:20:45.868Z,1004.74
2019-04-22T18:21:46.105Z,1004.78
2019-04-22T18:22:44.618Z,1004.75
2019-04-22T18:23:41.706Z,1004.78
2019-04-22T18:24:46.430Z,1004.76
2019-04-22T18:25:53.743Z,1004.80
2019-04-22T18:26:47.864Z,1004.82
2019-04-22T18:27:55.220Z,1004.80
2019-04-22T18:28:43.569Z,1004.77
2019-04-22T18:29:48.628Z,1004.79
2019-04-22T18:30:46.671Z,1004.84
2019-04-22T18:31:40.914Z,1004.76
2019-04-22T18:32:50.577Z,1004.80
2019-04-22T18:33:46.856Z,1004.78
2019-04-22T18:34:42.614Z,1004.85
2019-04-22T18:35:46.858Z,1004.81
2019-04-22T18:36:45.717Z,1004.83
2019-04-22T18:37:51.671Z,1004.83
2019-04-22T18:38:46.601Z,1004.81
2019-04-22T18:39:52.767Z,1004.81
2019-04-22T18:40:45.887Z,1004.82
2019-04-22T18:41:48.961Z,1004.80
2019-04-22T18:42:52.508Z,1004.83
2019-04-22T18:43:53.143Z,1004.83
2019-04-22T18:44:55.646Z,1004.82
2019-04-22T18:46:50.893Z,1004.78
2019-04-22T18:47:44.318Z,1004.80
2019-04-22T18:48:54.069Z,1004.80
2019-04-22T18:49:41.779Z,1004.78
2019-04-22T18:50:52.461Z,1004.80
2019-04-22T18:51:46.410Z,1004.77
2019-04-22T18:52:43.618Z,1004.76
2019-04-22T18:54:45.764Z,1004.78
2019-04-22T18:55:44.336Z,1004.80
2019-04-22T18:56:46.664Z,1004.78
2019-04-22T18:57:41.585Z,1004.76
2019-04-22T18:58:38.217Z,1004.79
2019-04-22T18:59:34.603Z,1004.78
2019-04-22T19:00:29.678Z,1004.77
2019-04-22T19:01:30.086Z,1004.80
2019-04-22T19:02:32.125Z,1004.80
2019-04-22T19:03:31.803Z,1004.80
2019-04-22T19:04:40.926Z,1004.82
2019-04-22T19:05:46.804Z,1004.80
2019-04-22T19:06:50.482Z,1004.82
2019-04-22T19:08:04.811Z,1004.83
2019-04-22T19:08:50.565Z,1004.83
2019-04-22T19:11:00.604Z,1004.78
2019-04-22T19:12:04.724Z,1004.83
2019-04-22T19:13:06.472Z,1004.80
2019-04-22T19:14:05.963Z,1004.80
2019-04-22T19:15:54.113Z,1004.79
2019-04-22T19:16:52.103Z,1004.75
2019-04-22T19:17:47.677Z,1004.75
2019-04-22T19:19:07.698Z,1004.74
2019-04-22T19:19:56.034Z,1004.75
2019-04-22T19:21:43.383Z,1004.75
2019-04-22T19:23:52.249Z,1004.75
2019-04-22T19:24:47.345Z,1004.80
2019-04-22T19:25:50.018Z,1004.72
2019-04-22T19:26:55.985Z,1004.76
2019-04-22T19:27:45.235Z,1004.77
2019-04-22T19:28:48.479Z,1004.76
2019-04-22T19:29:54.736Z,1004.72
2019-04-22T19:30:59.073Z,1004.68
2019-04-22T19:31:53.770Z,1004.71
2019-04-22T19:32:43.081Z,1004.73
2019-04-22T19:33:53.690Z,1004.69
2019-04-22T19:34:48.202Z,1004.76
2019-04-22T19:36:46.310Z,1004.73
2019-04-22T19:37:45.152Z,1004.73
2019-04-22T19:38:49.846Z,1004.73
2019-04-22T19:40:00.638Z,1004.72
2019-04-22T19:41:00.924Z,1004.66
2019-04-22T19:41:55.776Z,1004.64
2019-04-22T19:42:56.217Z,1004.64
2019-04-22T19:43:49.138Z,1004.60
2019-04-22T19:44:53.209Z,1004.63
2019-04-22T19:45:49.020Z,1004.67
2019-04-22T19:47:10.722Z,1004.55
2019-04-22T19:48:45.737Z,1004.60
2019-04-22T19:49:52.410Z,1004.57
2019-04-22T19:50:59.090Z,1004.57
2019-04-22T19:51:59.007Z,1004.58
2019-04-22T19:52:50.033Z,1004.52
2019-04-22T19:53:51.275Z,1004.49
2019-04-22T19:54:57.304Z,1004.46
2019-04-22T19:56:40.354Z,1004.45
2019-04-22T19:57:50.709Z,1004.50
2019-04-22T19:58:41.420Z,1004.46
2019-04-22T19:59:45.309Z,1004.44
2019-04-22T20:00:41.779Z,1004.45
2019-04-22T20:01:48.638Z,1004.45
2019-04-22T20:02:51.488Z,1004.45
2019-04-22T20:03:59.778Z,1004.47
2019-04-22T20:04:54.495Z,1004.46
2019-04-22T20:06:47.753Z,1004.49
2019-04-22T20:07:37.889Z,1004.52
2019-04-22T20:08:48.840Z,1004.46
2019-04-22T20:11:45.132Z,1004.48
2019-04-22T20:12:49.981Z,1004.45
2019-04-22T20:13:49.664Z,1004.46
2019-04-22T20:14:51.140Z,1004.49
2019-04-22T20:15:43.462Z,1004.48
2019-04-22T20:16:46.593Z,1004.43
2019-04-22T20:18:11.824Z,1004.45
2019-04-22T20:18:52.373Z,1004.47
2019-04-22T20:20:56.913Z,1004.44
2019-04-22T20:22:43.103Z,1004.49
2019-04-22T20:23:42.043Z,1004.41
2019-04-22T20:24:43.468Z,1004.42
2019-04-22T20:25:44.724Z,1004.43
2019-04-22T20:28:45.001Z,1004.35
2019-04-22T20:29:49.454Z,1004.36
2019-04-22T20:30:46.710Z,1004.30
2019-04-22T20:31:53.083Z,1004.37
2019-04-22T20:32:41.351Z,1004.34
2019-04-22T20:34:52.857Z,1004.32
2019-04-22T20:35:46.523Z,1004.33
2019-04-22T20:37:03.807Z,1004.32
2019-04-22T20:37:54.889Z,1004.34
2019-04-22T20:38:46.642Z,1004.31
2019-04-22T20:39:50.234Z,1004.32
2019-04-22T20:40:49.342Z,1004.32
2019-04-22T20:41:36.668Z,1004.33
2019-04-22T20:42:56.752Z,1004.30
2019-04-22T20:43:52.528Z,1004.27
2019-04-22T20:44:52.125Z,1004.23
2019-04-22T20:45:45.946Z,1004.22
2019-04-22T20:46:48.951Z,1004.23
2019-04-22T20:47:36.875Z,1004.23
2019-04-22T20:48:43.875Z,1004.14
2019-04-22T20:49:44.647Z,1004.20
2019-04-22T20:50:49.904Z,1004.20
2019-04-22T20:52:00.305Z,1004.15
2019-04-22T20:52:50.429Z,1004.17
2019-04-22T20:53:56.589Z,1004.20
2019-04-22T20:54:50.881Z,1004.19
2019-04-22T20:56:45.080Z,1004.20
2019-04-22T20:57:50.109Z,1004.19
2019-04-22T20:58:46.668Z,1004.18
2019-04-22T20:59:49.835Z,1004.18
2019-04-22T21:00:40.530Z,1004.18
2019-04-22T21:01:43.164Z,1004.17
2019-04-22T21:02:37.613Z,1004.13
2019-04-22T21:03:39.230Z,1004.11
2019-04-22T21:04:41.471Z,1004.08
2019-04-22T21:05:40.121Z,1004.04
2019-04-22T21:06:42.181Z,1004.06
2019-04-22T21:07:47.943Z,1004.08
2019-04-22T21:08:50.349Z,1004.10
2019-04-22T21:09:49.198Z,1004.05
2019-04-22T21:10:45.136Z,1004.05
2019-04-22T21:11:45.105Z,1004.03
2019-04-22T21:12:39.963Z,1004.03
2019-04-22T21:13:50.489Z,1004.01
2019-04-22T21:14:55.144Z,1004.01
2019-04-22T21:15:51.724Z,1003.93
2019-04-22T21:16:46.137Z,1003.98
2019-04-22T21:17:43.140Z,1004.04
2019-04-22T21:18:44.676Z,1003.96
2019-04-22T21:19:54.722Z,1003.94
2019-04-22T21:20:54.751Z,1003.96
2019-04-22T21:21:46.067Z,1003.90
2019-04-22T21:22:48.220Z,1003.91
2019-04-22T21:23:40.904Z,1003.92
2019-04-22T21:25:36.782Z,1003.82
2019-04-22T21:26:43.804Z,1003.81
2019-04-22T21:27:50.973Z,1003.87
2019-04-22T21:28:49.056Z,1003.81
2019-04-22T21:29:40.833Z,1003.85
2019-04-22T21:30:43.049Z,1003.82
2019-04-22T21:31:51.198Z,1003.79
2019-04-22T21:32:49.537Z,1003.80
2019-04-22T21:33:42.903Z,1003.81
2019-04-22T21:34:55.460Z,1003.77
2019-04-22T21:35:59.583Z,1003.75
2019-04-22T21:36:46.176Z,1003.81
2019-04-22T21:37:43.060Z,1003.76
2019-04-22T21:38:48.288Z,1003.74
2019-04-22T21:39:41.102Z,1003.70
2019-04-22T21:41:43.238Z,1003.72
2019-04-22T21:42:54.833Z,1003.69
2019-04-22T21:43:52.549Z,1003.66
2019-04-22T21:44:47.054Z,1003.69
2019-04-22T21:45:52.364Z,1003.60
2019-04-22T21:46:57.709Z,1003.64
2019-04-22T21:48:50.835Z,1003.61
2019-04-22T21:49:56.663Z,1003.66
2019-04-22T21:50:57.425Z,1003.65
2019-04-22T21:51:55.251Z,1003.63
2019-04-22T21:52:57.014Z,1003.65
2019-04-22T21:54:53.623Z,1003.66
2019-04-22T21:56:04.337Z,1003.63
2019-04-22T21:57:04.414Z,1003.65
2019-04-22T21:57:57.768Z,1003.62
2019-04-22T21:58:51.147Z,1003.61
2019-04-22T21:59:38.488Z,1003.64
2019-04-22T22:00:53.768Z,1003.62
2019-04-22T22:01:52.902Z,1003.66
2019-04-22T22:02:52.561Z,1003.65
2019-04-22T22:03:50.336Z,1003.66
2019-04-22T22:04:47.309Z,1003.62
2019-04-22T22:05:42.372Z,1003.69
2019-04-22T22:06:41.466Z,1003.65
2019-04-22T22:07:32.585Z,1003.67
2019-04-22T22:08:55.446Z,1003.71
2019-04-22T22:09:48.978Z,1003.69
2019-04-22T22:10:45.019Z,1003.67
2019-04-22T22:11:49.761Z,1003.65
2019-04-22T22:12:48.868Z,1003.67
2019-04-22T22:13:50.265Z,1003.62
2019-04-22T22:14:50.138Z,1003.63
2019-04-22T22:15:51.073Z,1003.68
2019-04-22T22:16:42.938Z,1003.65
2019-04-22T22:17:50.391Z,1003.58
2019-04-22T22:18:59.213Z,1003.60
2019-04-22T22:19:49.609Z,1003.56
2019-04-22T22:21:02.244Z,1003.54
2019-04-22T22:22:45.356Z,1003.52
2019-04-22T22:23:52.150Z,1003.55
2019-04-22T22:24:49.836Z,1003.54
2019-04-22T22:25:50.698Z,1003.56
2019-04-22T22:26:50.462Z,1003.55
2019-04-22T22:27:46.342Z,1003.54
2019-04-22T22:29:06.851Z,1003.55
2019-04-22T22:30:05.614Z,1003.55
2019-04-22T22:30:54.738Z,1003.53
2019-04-22T22:31:55.637Z,1003.52
2019-04-22T22:32:42.296Z,1003.55
2019-04-22T22:33:51.444Z,1003.47
2019-04-22T22:34:50.814Z,1003.56
2019-04-22T22:35:51.954Z,1003.48
2019-04-22T22:36:40.391Z,1003.56
2019-04-22T22:37:50.416Z,1003.54
2019-04-22T22:38:45.438Z,1003.50
2019-04-22T22:39:42.215Z,1003.57
2019-04-22T22:40:34.062Z,1003.46
2019-04-22T22:41:30.027Z,1003.48
2019-04-22T22:42:38.154Z,1003.51
2019-04-22T22:43:35.208Z,1003.52
2019-04-22T22:44:36.041Z,1003.51
2019-04-22T22:45:37.153Z,1003.45
2019-04-22T22:46:41.563Z,1003.47
2019-04-22T22:47:44.582Z,1003.42
2019-04-22T22:48:53.756Z,1003.42
2019-04-22T22:49:49.824Z,1003.42
2019-04-22T22:50:47.858Z,1003.43
2019-04-22T22:51:53.113Z,1003.43
2019-04-22T22:53:00.942Z,1003.45
2019-04-22T22:53:51.204Z,1003.43
2019-04-22T22:54:46.364Z,1003.38
2019-04-22T22:55:46.298Z,1003.44
2019-04-22T22:57:56.618Z,1003.27
2019-04-22T22:58:45.592Z,1003.33
2019-04-22T22:59:53.102Z,1003.29
2019-04-22T23:00:44.089Z,1003.29
2019-04-22T23:01:45.152Z,1003.31
2019-04-22T23:03:06.996Z,1003.29
2019-04-22T23:03:51.475Z,1003.33
2019-04-22T23:04:53.663Z,1003.23
2019-04-22T23:06:45.541Z,1003.21
2019-04-22T23:07:55.523Z,1003.27
2019-04-22T23:08:54.129Z,1003.33
2019-04-22T23:09:48.788Z,1003.33
2019-04-22T23:12:06.443Z,1003.25
2019-04-22T23:12:40.523Z,1003.34